This is the latest recevied weather packets stored in our database for station/object N3FU-13. If no packets are shown the sender has not sent any weather packets the latest 10 day(s).
| Time | Temp. | Humidity | Pressure | Rain* | Wind** | Luminosity | Snow |
|---|---|---|---|---|---|---|---|
| 1777939926 | 26.11° C | 59% | 1014 hPa | 0 mm | - | - | - |
| 1777939026 | 26.67° C | 58% | 1013.6 hPa | 0 mm | - | - | - |
| 1777938126 | 26.67° C | 57% | 1013.3 hPa | 0 mm | - | - | - |
| 1777937226 | 27.78° C | 55% | 1013.2 hPa | 0 mm | - | - | - |
| 1777936326 | 28.33° C | 53% | 1013 hPa | 0 mm | - | - | - |
| 1777935426 | 29.44° C | 51% | 1013.1 hPa | 0 mm | - | - | - |
| 1777935032 | 30.56° C | 49% | 1013 hPa | 0 mm | - | - | - |
| 1777934526 | 30.56° C | 49% | 1013 hPa | 0 mm | - | - | - |
| 1777933626 | 31.11° C | 48% | 1012.9 hPa | 0 mm | - | - | - |
| 1777932726 | 31.67° C | 44% | 1013.2 hPa | 0 mm | - | - | - |
| 1777931870 | 32.22° C | 43% | 1013.2 hPa | 0 mm | - | - | - |
| 1777931826 | 32.22° C | 43% | 1013.2 hPa | 0 mm | - | - | - |
| 1777930926 | 32.78° C | 42% | 1013.2 hPa | 0 mm | - | - | - |
| 1777930369 | 33.33° C | 41% | 1013.2 hPa | 0 mm | - | - | - |
| 1777930026 | 33.33° C | 41% | 1013.2 hPa | 0 mm | - | - | - |
| 1777929126 | 33.89° C | 40% | 1013.3 hPa | 0 mm | - | - | - |
| 1777928226 | 33.89° C | 41% | 1013.4 hPa | 0 mm | - | - | - |
| 1777927326 | 33.33° C | 41% | 1013.5 hPa | 0 mm | - | - | - |
| 1777927188 | 32.22° C | 44% | 1013.6 hPa | 0 mm | - | - | - |
| 1777926426 | 32.78° C | 43% | 1013.4 hPa | 0 mm | - | - | - |
| 1777925526 | 32.22° C | 44% | 1013.6 hPa | 0 mm | - | - | - |
| 1777924626 | 31.67° C | 45% | 1013.8 hPa | 0.25 mm | - | - | - |
| 1777923726 | 30.56° C | 50% | 1014 hPa | 0.25 mm | - | - | - |
| 1777922826 | 30.56° C | 53% | 1014.3 hPa | 0.25 mm | - | - | - |
| 1777921926 | 30° C | 50% | 1014.5 hPa | 0.25 mm | - | - | - |
* Rain latest hour (hover to see other rain measurements)
** Current wind speed in m/s (hover to see current wind gust speed)